This is the latest recevied weather packets stored in our database for station/object EA1HTW-1. If no packets are shown the sender has not sent any weather packets the latest 10 day(s).
| Time | Temp. | Humidity | Pressure | Rain* | Wind** | Luminosity | Snow |
|---|---|---|---|---|---|---|---|
| 1777669162 | 14.44° C | 71% | 990.4 hPa | 0 mm | - | - | - |
| 1777668563 | 14.44° C | 70% | 990.3 hPa | 0 mm | - | - | - |
| 1777667963 | 14.44° C | 72% | 990.5 hPa | 0 mm | - | - | - |
| 1777667363 | 14.44° C | 70% | 990.3 hPa | 0 mm | - | - | - |
| 1777666762 | 14.44° C | 68% | 990.2 hPa | 0 mm | - | - | - |
| 1777666162 | 15° C | 67% | 990.2 hPa | 0 mm | - | - | - |
| 1777664962 | 15° C | 68% | 990.1 hPa | 0 mm | - | - | - |
| 1777663974 | 15° C | 68% | 990 hPa | 0 mm | - | - | - |
| 1777663762 | 15° C | 68% | 990 hPa | 0 mm | - | - | - |
| 1777661964 | 15.56° C | 67% | 989.9 hPa | 0 mm | - | - | - |
| 1777661363 | 15.56° C | 67% | 989.9 hPa | 0 mm | - | - | - |
| 1777660163 | 16.11° C | 65% | 989.7 hPa | 0 mm | - | - | - |
| 1777659562 | 16.67° C | 63% | 989.7 hPa | 0 mm | - | - | - |
| 1777658962 | 16.67° C | 63% | 989.8 hPa | 0 mm | - | - | - |
| 1777658363 | 16.67° C | 63% | 989.6 hPa | 0 mm | - | - | - |
| 1777657762 | 17.22° C | 63% | 989.8 hPa | 0 mm | - | - | - |
| 1777657162 | 17.22° C | 62% | 989.7 hPa | 0 mm | - | - | - |
| 1777656563 | 17.22° C | 63% | 989.6 hPa | 0 mm | - | - | - |
| 1777655362 | 16.67° C | 66% | 989.5 hPa | 0 mm | - | - | - |
| 1777654763 | 17.22° C | 65% | 989.5 hPa | 0 mm | - | - | - |
| 1777653562 | 17.22° C | 67% | 989.5 hPa | 0 mm | - | - | - |
| 1777652963 | 17.78° C | 67% | 989.4 hPa | 0 mm | - | - | - |
| 1777651163 | 18.33° C | 66% | 989.4 hPa | 0 mm | - | - | - |
| 1777650563 | 18.33° C | 66% | 989.3 hPa | 0 mm | - | - | - |
| 1777649960 | 18.33° C | 67% | 989.4 hPa | 0 mm | - | - | - |
* Rain latest hour (hover to see other rain measurements)
** Current wind speed in m/s (hover to see current wind gust speed)